Time;durP1;ratioP1;P1;durP2;ratioP2;P2;SDS_P1;SDS_P2;PMS_P1;PMS_P2;Temp;Humidity;BMP_temperature;BMP_pressure;BME280_temperature;BME280_humidity;BME280_pressure;Samples;Min_cycle;Max_cycle;Signal;HPM_P1;HPM_P2
2022/10/15 00:01:58;;;;;;;0.80;0.80;;;14.10;99.90;;;;;;494579;241;28043;-81
2022/10/15 00:03:59;;;;;;;0.70;0.70;;;14.40;99.90;;;;;;494615;241;28030;-81
2022/10/15 00:06:00;;;;;;;0.80;0.80;;;14.20;99.90;;;;;;494579;241;28072;-81
2022/10/15 00:08:01;;;;;;;0.70;0.70;;;13.70;99.90;;;;;;494317;241;28083;-81
2022/10/15 00:10:03;;;;;;;0.60;0.60;;;14.30;99.90;;;;;;494298;241;28115;-81
2022/10/15 00:12:04;;;;;;;0.73;0.73;;;14.30;99.90;;;;;;494463;241;27928;-81
2022/10/15 00:14:05;;;;;;;0.70;0.70;;;13.00;99.90;;;;;;494493;241;28258;-80
2022/10/15 00:16:06;;;;;;;0.70;0.70;;;14.30;99.90;;;;;;494307;241;28354;-79
2022/10/15 00:18:09;;;;;;;0.70;0.70;;;;;;;;;;494435;241;28172;-82
2022/10/15 00:20:10;;;;;;;0.93;0.93;;;14.30;99.90;;;;;;494429;241;26362;-80
2022/10/15 00:22:13;;;;;;;3.27;0.70;;;;;;;;;;494386;241;28448;-83
2022/10/15 00:24:14;;;;;;;0.77;0.77;;;14.30;99.90;;;;;;494312;241;27072;-80
2022/10/15 00:26:15;;;;;;;0.73;0.73;;;14.40;99.90;;;;;;494318;241;28501;-80
2022/10/15 00:28:16;;;;;;;0.70;0.70;;;14.40;99.90;;;;;;494405;237;28548;-81
2022/10/15 00:30:18;;;;;;;0.73;0.73;;;14.30;99.90;;;;;;494317;241;28132;-80
2022/10/15 00:32:19;;;;;;;1.23;0.70;;;14.40;99.90;;;;;;494383;241;28077;-80
2022/10/15 00:34:20;;;;;;;0.70;0.70;;;14.40;99.90;;;;;;494487;241;28176;-80
2022/10/15 00:36:21;;;;;;;0.60;0.60;;;14.40;99.90;;;;;;494256;241;28084;-81
2022/10/15 00:38:23;;;;;;;0.70;0.70;;;14.40;99.90;;;;;;494370;237;28196;-80
2022/10/15 00:40:24;;;;;;;1.00;1.00;;;14.70;99.90;;;;;;494301;241;28289;-80
2022/10/15 00:42:25;;;;;;;0.83;0.83;;;14.40;99.90;;;;;;494283;241;28144;-80
2022/10/15 00:44:29;;;;;;;0.97;0.97;;;14.40;99.90;;;;;;494287;237;28264;-80
2022/10/15 00:46:30;;;;;;;1.10;1.10;;;14.30;99.90;;;;;;494407;241;28139;-80
2022/10/15 00:48:32;;;;;;;0.90;0.90;;;14.40;99.90;;;;;;494408;237;28270;-80
2022/10/15 00:50:33;;;;;;;0.70;0.70;;;14.50;99.90;;;;;;494349;237;28076;-80
2022/10/15 00:52:34;;;;;;;0.77;0.77;;;14.50;99.90;;;;;;494359;241;28046;-81
2022/10/15 00:54:35;;;;;;;1.27;0.87;;;14.50;99.90;;;;;;494315;241;28752;-80
2022/10/15 00:56:37;;;;;;;0.80;0.80;;;14.50;99.90;;;;;;494252;241;28803;-80
2022/10/15 00:58:38;;;;;;;1.00;1.00;;;14.60;99.90;;;;;;494306;241;28033;-80
2022/10/15 01:00:39;;;;;;;0.90;0.90;;;15.10;99.90;;;;;;494325;241;28077;-80
2022/10/15 01:02:40;;;;;;;1.00;1.00;;;14.70;99.90;;;;;;494487;241;28132;-80
2022/10/15 01:04:42;;;;;;;0.90;0.90;;;14.50;99.90;;;;;;494334;239;28128;-80
2022/10/15 01:06:43;;;;;;;0.90;0.90;;;13.80;99.90;;;;;;494428;240;28049;-80
2022/10/15 01:08:44;;;;;;;0.87;0.87;;;14.50;99.90;;;;;;494398;237;28169;-80
2022/10/15 01:10:46;;;;;;;1.10;1.10;;;14.50;99.90;;;;;;494299;239;28087;-81
2022/10/15 01:12:47;;;;;;;1.17;1.17;;;14.60;99.90;;;;;;494473;241;28170;-80
2022/10/15 01:14:48;;;;;;;0.97;0.97;;;14.60;99.90;;;;;;494445;241;28254;-80
2022/10/15 01:16:49;;;;;;;1.07;1.07;;;14.70;99.90;;;;;;494233;241;28577;-80
2022/10/15 01:18:50;;;;;;;0.90;0.90;;;14.10;99.90;;;;;;494538;241;28531;-80
2022/10/15 01:20:52;;;;;;;0.90;0.90;;;14.60;99.90;;;;;;494367;241;28735;-80
2022/10/15 01:22:53;;;;;;;0.90;0.90;;;14.60;99.90;;;;;;494507;240;28044;-81
2022/10/15 01:24:54;;;;;;;0.90;0.90;;;14.70;99.90;;;;;;494314;241;28285;-80
2022/10/15 01:26:55;;;;;;;2.03;1.20;;;14.20;99.90;;;;;;494450;241;28064;-80
2022/10/15 01:28:57;;;;;;;1.00;1.00;;;14.70;99.90;;;;;;494515;241;28096;-80
2022/10/15 01:30:58;;;;;;;0.90;0.90;;;15.00;99.90;;;;;;494497;241;28143;-80
2022/10/15 01:32:59;;;;;;;1.10;1.00;;;14.60;99.90;;;;;;494494;241;28033;-81
2022/10/15 01:35:01;;;;;;;1.50;1.40;;;14.60;99.90;;;;;;494353;241;28051;-80
2022/10/15 01:37:02;;;;;;;1.80;1.70;;;14.60;99.90;;;;;;494233;237;28064;-80
2022/10/15 01:39:03;;;;;;;1.67;1.57;;;14.60;99.90;;;;;;494434;241;28773;-80
2022/10/15 01:41:04;;;;;;;1.33;1.30;;;14.60;99.90;;;;;;494297;241;28590;-80
2022/10/15 01:43:06;;;;;;;1.20;1.20;;;14.70;99.90;;;;;;494465;237;28509;-80
2022/10/15 01:45:07;;;;;;;1.77;1.67;;;15.30;99.90;;;;;;494323;241;28632;-80
2022/10/15 01:47:08;;;;;;;1.80;1.70;;;14.70;99.90;;;;;;494320;237;28297;-80
2022/10/15 01:49:09;;;;;;;1.50;1.40;;;13.50;99.90;;;;;;494427;241;28072;-80
2022/10/15 01:51:11;;;;;;;2.80;2.60;;;14.70;99.90;;;;;;494327;241;28266;-80
2022/10/15 01:53:12;;;;;;;5.10;4.60;;;14.70;99.90;;;;;;494384;241;28163;-80
2022/10/15 01:55:13;;;;;;;6.57;5.50;;;14.80;99.90;;;;;;494385;241;28257;-80
2022/10/15 01:57:16;;;;;;;5.90;5.33;;;;;;;;;;494467;241;28170;-82
2022/10/15 01:59:17;;;;;;;9.00;6.33;;;14.80;99.90;;;;;;494401;241;26369;-80
2022/10/15 02:01:18;;;;;;;12.87;9.83;;;14.70;99.90;;;;;;494531;241;28087;-80
2022/10/15 02:03:19;;;;;;;17.73;11.17;;;14.80;99.90;;;;;;494532;241;28040;-80
2022/10/15 02:05:20;;;;;;;33.60;19.13;;;14.70;99.90;;;;;;494366;241;28201;-81
2022/10/15 02:07:22;;;;;;;46.43;24.90;;;14.70;99.90;;;;;;494323;241;28115;-81
2022/10/15 02:09:23;;;;;;;48.10;25.50;;;14.90;99.90;;;;;;494514;240;28102;-80
2022/10/15 02:11:24;;;;;;;38.33;21.40;;;14.60;99.90;;;;;;494501;241;28652;-80
2022/10/15 02:13:26;;;;;;;37.43;19.97;;;14.80;99.90;;;;;;494504;241;28918;-80
2022/10/15 02:15:27;;;;;;;37.53;20.17;;;14.90;99.90;;;;;;494476;241;28186;-80
2022/10/15 02:17:28;;;;;;;31.77;18.17;;;14.70;99.90;;;;;;494369;237;28033;-81
2022/10/15 02:19:29;;;;;;;24.47;13.73;;;14.70;99.90;;;;;;494332;241;28058;-80
2022/10/15 02:21:31;;;;;;;23.73;13.83;;;14.70;99.90;;;;;;494480;241;28243;-80
2022/10/15 02:23:32;;;;;;;22.70;13.43;;;14.80;99.90;;;;;;494530;241;28161;-80
2022/10/15 02:25:34;;;;;;;23.33;13.20;;;14.80;99.90;;;;;;494499;241;28799;-80
2022/10/15 02:27:34;;;;;;;30.17;14.00;;;14.90;99.90;;;;;;494444;241;28669;-81
2022/10/15 02:29:36;;;;;;;21.70;11.40;;;14.80;99.90;;;;;;494322;241;28063;-81
2022/10/15 02:31:37;;;;;;;16.70;9.77;;;13.60;99.90;;;;;;494468;241;28081;-80
2022/10/15 02:33:38;;;;;;;14.10;7.93;;;14.90;99.90;;;;;;494497;241;28170;-80
2022/10/15 02:35:39;;;;;;;10.47;6.27;;;14.80;99.90;;;;;;494343;241;28094;-81
2022/10/15 02:37:41;;;;;;;6.43;4.20;;;14.70;99.90;;;;;;494248;241;28041;-81
2022/10/15 02:39:43;;;;;;;4.73;3.27;;;;;;;;;;494238;241;28181;-82
2022/10/15 02:41:44;;;;;;;3.47;2.60;;;14.70;99.90;;;;;;494355;241;26341;-81
2022/10/15 02:43:46;;;;;;;4.30;2.93;;;14.80;99.90;;;;;;494520;241;28061;-80
2022/10/15 02:45:47;;;;;;;2.80;2.43;;;14.80;99.90;;;;;;494518;241;28153;-81
2022/10/15 02:47:48;;;;;;;2.67;1.83;;;14.90;99.90;;;;;;494393;237;28242;-81
2022/10/15 02:49:49;;;;;;;1.93;1.60;;;14.80;99.90;;;;;;494387;241;28247;-81
2022/10/15 02:51:52;;;;;;;2.43;1.20;;;;;;;;;;494336;241;28135;-83
2022/10/15 02:53:53;;;;;;;1.27;1.17;;;14.80;99.90;;;;;;494518;240;26485;-81
2022/10/15 02:55:54;;;;;;;1.23;1.17;;;14.70;99.90;;;;;;494532;241;28165;-80
2022/10/15 02:57:55;;;;;;;1.27;1.10;;;14.80;99.90;;;;;;494356;237;28410;-80
2022/10/15 02:59:57;;;;;;;0.90;0.90;;;14.80;99.90;;;;;;494351;241;28236;-81
2022/10/15 03:01:58;;;;;;;1.70;1.37;;;14.90;99.90;;;;;;494357;241;28273;-81
2022/10/15 03:03:59;;;;;;;1.53;1.43;;;14.90;99.90;;;;;;494535;241;28059;-81
2022/10/15 03:06:02;;;;;;;1.00;1.00;;;;;;;;;;494338;241;28232;-82
2022/10/15 03:08:03;;;;;;;1.10;1.10;;;14.80;99.90;;;;;;494311;237;26354;-82
2022/10/15 03:10:04;;;;;;;1.00;1.00;;;14.80;99.90;;;;;;494279;241;28343;-81
2022/10/15 03:12:05;;;;;;;0.83;0.83;;;14.80;99.90;;;;;;494346;241;28358;-81
2022/10/15 03:14:07;;;;;;;0.80;0.80;;;15.10;99.90;;;;;;494335;241;28152;-81
2022/10/15 03:16:08;;;;;;;0.80;0.80;;;14.80;99.90;;;;;;494446;240;28149;-81
2022/10/15 03:18:09;;;;;;;0.80;0.80;;;14.70;99.90;;;;;;494497;237;28017;-81
2022/10/15 03:20:10;;;;;;;0.90;0.90;;;14.70;99.90;;;;;;494483;241;28063;-81
2022/10/15 03:22:12;;;;;;;0.80;0.80;;;14.60;99.90;;;;;;494327;241;28971;-81
2022/10/15 03:24:13;;;;;;;0.90;0.90;;;14.70;99.90;;;;;;494505;241;28655;-81
2022/10/15 03:26:14;;;;;;;0.80;0.80;;;14.80;99.90;;;;;;494246;241;28746;-81
2022/10/15 03:28:15;;;;;;;0.83;0.83;;;14.70;99.90;;;;;;494486;241;28294;-81
2022/10/15 03:30:17;;;;;;;0.73;0.73;;;14.70;99.90;;;;;;494476;237;28137;-81
2022/10/15 03:32:18;;;;;;;0.73;0.73;;;14.80;99.90;;;;;;494480;241;28132;-81
2022/10/15 03:34:19;;;;;;;0.80;0.80;;;14.70;99.90;;;;;;494432;241;28208;-81
2022/10/15 03:36:20;;;;;;;0.60;0.60;;;14.70;99.90;;;;;;494425;241;28171;-81
2022/10/15 03:38:22;;;;;;;0.70;0.70;;;14.60;99.90;;;;;;494429;241;28324;-81
2022/10/15 03:40:23;;;;;;;0.80;0.80;;;14.70;99.90;;;;;;494453;241;28050;-81
2022/10/15 03:42:24;;;;;;;0.70;0.70;;;14.80;99.90;;;;;;494559;241;28141;-82
2022/10/15 03:44:25;;;;;;;0.70;0.70;;;14.70;99.90;;;;;;494568;241;28050;-82
2022/10/15 03:46:27;;;;;;;0.80;0.80;;;14.70;99.90;;;;;;494391;241;28816;-80
2022/10/15 03:48:28;;;;;;;0.73;0.73;;;14.80;99.90;;;;;;494406;241;28282;-81
2022/10/15 03:50:30;;;;;;;1.00;0.90;;;;;;;;;;494415;241;28692;-82
2022/10/15 03:52:32;;;;;;;0.90;0.90;;;14.60;99.90;;;;;;494409;241;26536;-81
2022/10/15 03:54:33;;;;;;;0.90;0.90;;;14.60;99.90;;;;;;494249;241;28064;-81
2022/10/15 03:56:34;;;;;;;1.00;1.00;;;14.60;99.90;;;;;;494174;241;28254;-81
2022/10/15 03:58:35;;;;;;;1.07;1.07;;;14.60;99.90;;;;;;494241;241;28677;-81
2022/10/15 04:00:37;;;;;;;1.83;1.00;;;14.60;99.90;;;;;;494259;241;29172;-81
2022/10/15 04:02:38;;;;;;;1.00;1.00;;;14.50;99.90;;;;;;494445;241;28596;-81
2022/10/15 04:04:39;;;;;;;1.10;1.00;;;14.60;99.90;;;;;;494432;241;28164;-80
2022/10/15 04:06:40;;;;;;;1.10;1.10;;;14.60;99.90;;;;;;494202;241;28222;-80
2022/10/15 04:08:42;;;;;;;1.23;1.13;;;14.50;99.90;;;;;;494366;237;28260;-80
2022/10/15 04:10:43;;;;;;;1.00;1.00;;;14.60;99.90;;;;;;494425;241;28138;-80
2022/10/15 04:12:44;;;;;;;1.20;1.20;;;14.50;99.90;;;;;;494474;241;28070;-80
2022/10/15 04:14:46;;;;;;;1.20;1.20;;;14.50;99.90;;;;;;494429;241;28139;-82
2022/10/15 04:16:47;;;;;;;1.50;1.40;;;14.50;99.90;;;;;;494377;241;27358;-80
2022/10/15 04:18:49;;;;;;;1.27;1.27;;;14.50;99.90;;;;;;494243;241;28701;-81
2022/10/15 04:20:50;;;;;;;1.47;1.37;;;14.50;99.90;;;;;;494273;241;28827;-80
2022/10/15 04:22:51;;;;;;;1.60;1.50;;;14.50;99.90;;;;;;494434;241;28846;-80
2022/10/15 04:24:52;;;;;;;2.00;1.50;;;14.50;99.90;;;;;;494418;241;28058;-80
2022/10/15 04:26:54;;;;;;;1.50;1.40;;;14.40;99.90;;;;;;494221;241;28266;-79
2022/10/15 04:28:55;;;;;;;1.80;1.70;;;14.40;99.90;;;;;;494239;241;28252;-80
2022/10/15 04:30:57;;;;;;;1.60;1.50;;;14.40;99.90;;;;;;494276;241;28072;-80
2022/10/15 04:32:57;;;;;;;3.50;1.47;;;14.40;99.90;;;;;;494467;239;28092;-80
2022/10/15 04:34:59;;;;;;;1.80;1.70;;;14.40;99.90;;;;;;494409;241;28180;-80
2022/10/15 04:37:00;;;;;;;2.00;1.90;;;14.40;99.90;;;;;;494355;241;28072;-80
2022/10/15 04:39:01;;;;;;;1.70;1.60;;;14.40;99.90;;;;;;494259;237;28139;-80
2022/10/15 04:41:03;;;;;;;1.97;1.87;;;14.40;99.90;;;;;;494420;241;28210;-80
2022/10/15 04:43:04;;;;;;;1.73;1.63;;;14.30;99.90;;;;;;494291;241;28607;-80
2022/10/15 04:45:05;;;;;;;1.87;1.77;;;14.30;99.90;;;;;;494407;241;28655;-80
2022/10/15 04:47:07;;;;;;;1.80;1.70;;;;;;;;;;494343;241;28132;-82
2022/10/15 04:49:09;;;;;;;1.77;1.60;;;14.30;99.90;;;;;;494241;241;26406;-81
2022/10/15 04:51:10;;;;;;;1.93;1.83;;;14.30;99.90;;;;;;494245;241;28264;-80
2022/10/15 04:53:11;;;;;;;1.70;1.60;;;14.30;99.90;;;;;;494433;241;28266;-80
2022/10/15 04:55:12;;;;;;;1.87;1.77;;;14.30;99.90;;;;;;494475;240;28562;-81
2022/10/15 04:57:14;;;;;;;2.53;1.60;;;14.30;99.90;;;;;;494330;237;28767;-80
2022/10/15 04:59:15;;;;;;;2.07;1.97;;;14.30;99.90;;;;;;494420;241;28746;-81
2022/10/15 05:01:16;;;;;;;1.87;1.77;;;14.30;99.90;;;;;;494261;241;28059;-80
2022/10/15 05:03:17;;;;;;;1.50;1.40;;;14.30;99.90;;;;;;494214;241;28317;-80
2022/10/15 05:05:19;;;;;;;1.60;1.50;;;14.30;99.90;;;;;;494409;241;28236;-81
2022/10/15 05:07:20;;;;;;;1.93;1.73;;;14.30;99.90;;;;;;494189;241;28144;-81
2022/10/15 05:09:21;;;;;;;1.67;1.57;;;14.30;99.90;;;;;;494467;241;28097;-80
2022/10/15 05:11:22;;;;;;;2.27;1.73;;;14.30;99.90;;;;;;494423;241;28042;-80
2022/10/15 05:13:24;;;;;;;1.70;1.60;;;14.30;99.90;;;;;;494440;241;28062;-80
2022/10/15 05:15:26;;;;;;;1.87;1.77;;;14.20;99.90;;;;;;494281;241;28380;-80
2022/10/15 05:17:27;;;;;;;2.00;1.90;;;;;;;;;;494355;241;29068;-82
2022/10/15 05:19:29;;;;;;;2.20;2.00;;;14.20;99.90;;;;;;494264;241;26474;-80
2022/10/15 05:21:30;;;;;;;2.20;1.83;;;14.30;99.90;;;;;;494482;241;28082;-80
2022/10/15 05:23:31;;;;;;;2.13;1.93;;;14.20;99.90;;;;;;494463;241;28055;-80
2022/10/15 05:25:32;;;;;;;2.60;1.90;;;14.20;99.90;;;;;;494288;241;28076;-80
2022/10/15 05:27:34;;;;;;;2.00;1.83;;;14.20;99.90;;;;;;494215;241;28170;-81
2022/10/15 05:29:38;;;;;;;2.20;2.10;;;;;;;;;;494414;241;28088;-82
2022/10/15 05:31:37;;;;;;;2.00;1.90;;;14.20;99.90;;;;;;494296;241;26373;-80
2022/10/15 05:33:39;;;;;;;2.10;2.00;;;14.20;99.90;;;;;;494449;241;28072;-80
2022/10/15 05:35:40;;;;;;;2.20;2.10;;;14.20;99.90;;;;;;494491;241;28056;-80
2022/10/15 05:37:41;;;;;;;2.47;2.27;;;14.10;99.90;;;;;;494207;241;28186;-80
2022/10/15 05:39:44;;;;;;;3.33;1.70;;;;;;;;;;494308;241;28394;-82
2022/10/15 05:41:45;;;;;;;2.30;2.20;;;14.10;99.90;;;;;;494326;241;26498;-81
2022/10/15 05:43:46;;;;;;;2.20;2.10;;;14.10;99.90;;;;;;494292;241;28128;-80
2022/10/15 05:45:47;;;;;;;2.13;2.00;;;14.00;99.90;;;;;;494471;241;28080;-79
2022/10/15 05:47:48;;;;;;;1.93;1.83;;;14.00;99.90;;;;;;494337;237;28049;-80
2022/10/15 05:49:50;;;;;;;4.60;2.40;;;14.00;99.90;;;;;;494297;241;28081;-79
2022/10/15 05:51:51;;;;;;;9.57;2.33;;;14.00;99.90;;;;;;494449;241;28147;-80
2022/10/15 05:53:52;;;;;;;2.07;1.97;;;14.00;99.90;;;;;;494467;241;28174;-80
2022/10/15 05:55:53;;;;;;;1.90;1.80;;;14.00;99.90;;;;;;494427;241;28164;-80
2022/10/15 05:57:56;;;;;;;8.60;1.80;;;13.90;99.90;;;;;;494205;241;28128;-80
2022/10/15 05:59:56;;;;;;;1.70;1.60;;;13.90;99.90;;;;;;494449;241;28683;-80
2022/10/15 06:01:57;;;;;;;1.90;1.80;;;14.00;99.90;;;;;;494305;241;28975;-81
2022/10/15 06:03:58;;;;;;;2.00;1.87;;;14.00;99.90;;;;;;494335;241;28047;-80
2022/10/15 06:06:00;;;;;;;1.80;1.70;;;13.90;99.90;;;;;;494228;241;28087;-80
2022/10/15 06:08:01;;;;;;;2.00;1.90;;;13.90;99.90;;;;;;494298;237;28124;-80
2022/10/15 06:10:02;;;;;;;2.00;1.90;;;13.90;99.90;;;;;;494471;241;28283;-80
2022/10/15 06:12:03;;;;;;;2.17;2.07;;;14.00;99.90;;;;;;494493;241;28183;-80
2022/10/15 06:14:05;;;;;;;2.10;2.00;;;14.00;99.90;;;;;;494456;239;28154;-81
2022/10/15 06:16:06;;;;;;;2.10;2.00;;;14.00;99.90;;;;;;494315;241;28226;-80
2022/10/15 06:18:08;;;;;;;1.60;1.50;;;14.00;99.90;;;;;;494433;241;28786;-80
2022/10/15 06:20:09;;;;;;;3.10;2.70;;;14.00;99.90;;;;;;494296;241;28362;-80
2022/10/15 06:22:10;;;;;;;2.23;2.13;;;14.00;99.90;;;;;;494468;240;28621;-80
2022/10/15 06:24:11;;;;;;;2.53;2.43;;;14.00;99.90;;;;;;494281;241;28646;-81
2022/10/15 06:26:12;;;;;;;3.03;2.73;;;14.00;99.90;;;;;;494368;241;28595;-80
2022/10/15 06:28:14;;;;;;;2.40;2.20;;;14.00;99.90;;;;;;494465;241;28231;-81
2022/10/15 06:30:15;;;;;;;2.17;2.07;;;14.00;99.90;;;;;;494442;241;28050;-80
2022/10/15 06:32:16;;;;;;;2.43;2.23;;;14.00;99.90;;;;;;494274;237;28056;-80
2022/10/15 06:34:17;;;;;;;1.80;1.70;;;14.00;99.90;;;;;;494287;241;28068;-80
2022/10/15 06:36:20;;;;;;;2.10;1.90;;;14.00;99.90;;;;;;494243;241;28691;-80
2022/10/15 06:38:20;;;;;;;2.47;2.27;;;14.00;99.90;;;;;;494368;241;28041;-81
2022/10/15 06:40:21;;;;;;;2.67;1.80;;;14.00;99.90;;;;;;494285;237;28153;-81
2022/10/15 06:42:22;;;;;;;1.87;1.77;;;14.00;99.90;;;;;;494296;241;28080;-80
2022/10/15 06:44:24;;;;;;;2.30;1.97;;;14.00;99.90;;;;;;494319;241;28154;-81
2022/10/15 06:46:25;;;;;;;2.60;1.70;;;14.00;99.90;;;;;;494213;241;28563;-80
2022/10/15 06:48:26;;;;;;;1.70;1.60;;;14.00;99.90;;;;;;494290;241;28691;-80
2022/10/15 06:50:27;;;;;;;1.73;1.63;;;14.10;99.90;;;;;;494473;241;28067;-80
2022/10/15 06:52:29;;;;;;;1.50;1.40;;;14.00;99.90;;;;;;494319;241;28411;-80
2022/10/15 06:54:30;;;;;;;1.87;1.77;;;14.10;99.90;;;;;;494297;241;27937;-82
2022/10/15 06:56:31;;;;;;;1.73;1.63;;;14.00;99.90;;;;;;494247;241;28067;-80
2022/10/15 06:58:32;;;;;;;1.90;1.80;;;14.00;99.90;;;;;;494327;237;28052;-80
2022/10/15 07:00:34;;;;;;;1.20;1.10;;;14.10;99.90;;;;;;494475;241;28037;-80
2022/10/15 07:02:35;;;;;;;1.50;1.40;;;14.10;99.90;;;;;;494472;241;28278;-80
2022/10/15 07:04:36;;;;;;;1.73;1.50;;;14.10;99.90;;;;;;494329;241;28258;-80
2022/10/15 07:06:37;;;;;;;2.47;1.63;;;14.10;99.90;;;;;;494382;241;28184;-81
2022/10/15 07:08:39;;;;;;;1.80;1.70;;;14.10;99.90;;;;;;494506;241;28606;-80
2022/10/15 07:10:40;;;;;;;1.30;1.30;;;14.10;99.90;;;;;;494638;241;28521;-80
2022/10/15 07:12:41;;;;;;;1.70;1.50;;;14.10;99.90;;;;;;494420;241;28800;-82
2022/10/15 07:14:42;;;;;;;2.13;1.33;;;14.10;99.90;;;;;;494611;241;28037;-80
2022/10/15 07:16:44;;;;;;;1.20;1.20;;;14.10;99.90;;;;;;494550;241;28234;-81
2022/10/15 07:18:45;;;;;;;1.17;1.17;;;14.20;99.90;;;;;;494399;241;28145;-83
2022/10/15 07:20:46;;;;;;;1.43;1.33;;;14.20;99.90;;;;;;494468;241;28142;-80
2022/10/15 07:22:47;;;;;;;1.60;1.30;;;14.20;99.90;;;;;;494488;241;28225;-79
2022/10/15 07:24:49;;;;;;;1.20;1.20;;;14.20;99.90;;;;;;494319;240;28190;-81
2022/10/15 07:26:50;;;;;;;1.57;1.50;;;14.20;99.90;;;;;;494424;241;28053;-80
2022/10/15 07:28:51;;;;;;;1.70;1.60;;;14.20;99.90;;;;;;494447;241;28036;-80
2022/10/15 07:30:52;;;;;;;1.37;1.37;;;14.20;99.90;;;;;;494468;241;28075;-81
2022/10/15 07:32:54;;;;;;;2.10;1.37;;;14.30;99.90;;;;;;494318;241;28201;-79
2022/10/15 07:34:55;;;;;;;1.60;1.50;;;14.30;99.90;;;;;;494474;241;28729;-80
2022/10/15 07:36:56;;;;;;;1.40;1.40;;;14.20;99.90;;;;;;494428;241;28640;-80
2022/10/15 07:38:57;;;;;;;1.20;1.20;;;14.30;99.90;;;;;;494326;237;28136;-81
2022/10/15 07:40:59;;;;;;;1.73;1.63;;;14.30;99.90;;;;;;494494;241;28064;-81
2022/10/15 07:43:00;;;;;;;1.30;1.30;;;14.30;99.90;;;;;;494455;241;28054;-79
2022/10/15 07:45:01;;;;;;;1.53;1.43;;;14.40;99.90;;;;;;494310;241;28063;-80
2022/10/15 07:47:02;;;;;;;1.20;1.20;;;14.30;99.90;;;;;;494238;241;28235;-80
2022/10/15 07:49:04;;;;;;;1.33;1.33;;;14.30;99.90;;;;;;494024;241;28051;-80
2022/10/15 07:51:05;;;;;;;1.73;1.63;;;14.40;99.90;;;;;;494488;241;28106;-81
2022/10/15 07:53:06;;;;;;;1.53;1.50;;;14.40;99.90;;;;;;494299;241;28476;-81
2022/10/15 07:55:07;;;;;;;1.87;1.77;;;14.40;99.90;;;;;;494501;241;28077;-80
2022/10/15 07:57:09;;;;;;;1.57;1.47;;;14.40;99.90;;;;;;494390;241;28763;-79
2022/10/15 07:59:10;;;;;;;1.70;1.60;;;14.50;99.90;;;;;;494347;241;28739;-81
2022/10/15 08:01:11;;;;;;;1.40;1.40;;;14.60;99.90;;;;;;494504;241;28218;-80
2022/10/15 08:03:12;;;;;;;1.37;1.37;;;14.70;99.90;;;;;;494326;241;28161;-80
2022/10/15 08:05:14;;;;;;;1.67;1.60;;;14.70;99.90;;;;;;494328;241;28598;-82
2022/10/15 08:07:15;;;;;;;1.70;1.60;;;14.80;99.90;;;;;;494380;241;28158;-80
2022/10/15 08:09:16;;;;;;;1.73;1.63;;;14.90;99.90;;;;;;494342;241;28513;-80
2022/10/15 08:11:17;;;;;;;2.17;1.50;;;14.90;99.90;;;;;;494465;241;28391;-82
2022/10/15 08:13:19;;;;;;;1.87;1.77;;;14.90;99.90;;;;;;494344;241;28405;-81
2022/10/15 08:15:20;;;;;;;1.57;1.30;;;14.90;99.90;;;;;;494312;241;28704;-80
2022/10/15 08:17:21;;;;;;;1.23;1.23;;;14.90;99.90;;;;;;494246;237;28260;-79
2022/10/15 08:19:22;;;;;;;1.33;1.33;;;14.90;99.90;;;;;;494335;241;29108;-79
2022/10/15 08:21:24;;;;;;;1.23;1.20;;;14.90;99.90;;;;;;494487;241;29245;-79
2022/10/15 08:23:25;;;;;;;4.27;1.40;;;15.00;99.90;;;;;;494346;241;29110;-79
2022/10/15 08:25:26;;;;;;;1.30;1.30;;;15.10;99.90;;;;;;494528;241;28711;-80
2022/10/15 08:27:27;;;;;;;1.47;1.37;;;15.10;99.90;;;;;;494415;241;28677;-83
2022/10/15 08:29:29;;;;;;;2.80;1.23;;;15.10;99.90;;;;;;494592;241;28437;-81
2022/10/15 08:31:30;;;;;;;1.13;1.13;;;15.10;99.90;;;;;;494478;241;28402;-81
2022/10/15 08:33:31;;;;;;;1.30;1.30;;;15.10;99.90;;;;;;494505;241;28394;-81
2022/10/15 08:35:35;;;;;;;1.00;1.00;;;15.20;99.90;;;;;;494345;241;28408;-82
2022/10/15 08:37:34;;;;;;;1.10;1.10;;;15.10;99.90;;;;;;494086;241;28867;-81
2022/10/15 08:39:35;;;;;;;1.37;1.10;;;15.10;99.90;;;;;;494470;241;28479;-81
2022/10/15 08:41:36;;;;;;;1.10;1.10;;;15.10;99.90;;;;;;494346;241;29185;-81
2022/10/15 08:43:37;;;;;;;1.00;1.00;;;15.20;99.90;;;;;;494487;241;29391;-81
2022/10/15 08:45:41;;;;;;;0.97;0.97;;;15.30;99.90;;;;;;494353;241;29220;-81
2022/10/15 08:47:40;;;;;;;1.00;1.00;;;15.30;99.90;;;;;;494322;241;29257;-80
2022/10/15 08:49:41;;;;;;;1.03;1.03;;;15.40;99.90;;;;;;494518;241;28665;-81
2022/10/15 08:51:42;;;;;;;1.00;1.00;;;15.50;99.90;;;;;;494514;241;28779;-81
2022/10/15 08:53:44;;;;;;;1.00;1.00;;;15.50;99.90;;;;;;494510;241;28779;-81
2022/10/15 08:55:45;;;;;;;1.17;1.10;;;15.50;99.90;;;;;;494299;241;28748;-81
2022/10/15 08:57:46;;;;;;;1.10;1.10;;;15.40;99.90;;;;;;494405;241;28756;-80
2022/10/15 08:59:47;;;;;;;1.40;1.30;;;15.40;99.90;;;;;;494360;241;28764;-80
2022/10/15 09:01:49;;;;;;;1.33;1.30;;;15.30;99.90;;;;;;494302;241;28771;-81
2022/10/15 09:03:50;;;;;;;1.03;1.03;;;15.30;99.90;;;;;;494450;241;28693;-80
2022/10/15 09:05:51;;;;;;;1.00;1.00;;;15.30;99.90;;;;;;494307;241;29242;-80
2022/10/15 09:07:52;;;;;;;1.40;1.40;;;15.30;99.90;;;;;;494404;241;29385;-81
2022/10/15 09:09:54;;;;;;;1.43;1.33;;;15.30;99.90;;;;;;494523;241;29195;-80
2022/10/15 09:11:55;;;;;;;1.17;1.17;;;15.30;99.90;;;;;;494528;241;28758;-80
2022/10/15 09:13:56;;;;;;;1.33;1.23;;;15.20;99.90;;;;;;494395;241;28689;-80
2022/10/15 09:15:59;;;;;;;0.97;0.97;;;15.20;99.90;;;;;;494536;241;28702;-80
2022/10/15 09:17:59;;;;;;;1.20;1.20;;;15.20;99.90;;;;;;494288;241;28379;-80
2022/10/15 09:20:00;;;;;;;1.07;1.07;;;15.20;99.90;;;;;;494406;241;28783;-80
2022/10/15 09:22:01;;;;;;;1.00;1.00;;;15.20;99.90;;;;;;494362;241;28704;-80
2022/10/15 09:24:02;;;;;;;1.20;1.20;;;15.20;99.90;;;;;;494343;241;28775;-80
2022/10/15 09:26:04;;;;;;;1.40;1.40;;;15.20;99.90;;;;;;494343;241;28701;-80
2022/10/15 09:28:05;;;;;;;1.60;1.50;;;15.20;99.90;;;;;;493274;241;47583;-80
2022/10/15 09:30:06;;;;;;;1.90;1.80;;;15.20;99.90;;;;;;494516;239;27430;-80
2022/10/15 09:32:07;;;;;;;4.90;4.20;;;15.20;99.90;;;;;;494305;241;29423;-81
2022/10/15 09:34:09;;;;;;;9.20;6.40;;;15.20;99.90;;;;;;494318;241;28693;-80
2022/10/15 09:36:10;;;;;;;9.37;7.30;;;15.30;99.90;;;;;;494428;241;28279;-80
2022/10/15 09:38:13;;;;;;;5.77;5.00;;;15.40;99.90;;;;;;494450;241;28667;-81
2022/10/15 09:40:12;;;;;;;4.80;3.87;;;15.50;99.90;;;;;;494425;241;28777;-80
2022/10/15 09:42:14;;;;;;;4.97;3.20;;;15.50;99.90;;;;;;494504;241;28783;-80
2022/10/15 09:44:17;;;;;;;3.47;2.73;;;15.50;99.90;;;;;;494316;241;28716;-80
2022/10/15 09:46:16;;;;;;;2.37;2.17;;;15.50;99.90;;;;;;494169;241;28717;-80
2022/10/15 09:48:17;;;;;;;2.80;2.20;;;15.60;99.90;;;;;;494348;241;28790;-80
2022/10/15 09:50:19;;;;;;;5.23;1.93;;;15.90;99.90;;;;;;494454;241;28700;-80
2022/10/15 09:52:20;;;;;;;2.30;1.40;;;16.00;99.90;;;;;;494464;241;29299;-79
2022/10/15 09:54:21;;;;;;;1.40;1.30;;;16.00;99.90;;;;;;494509;237;29242;-80
2022/10/15 09:56:22;;;;;;;2.60;1.50;;;16.00;99.90;;;;;;494430;241;29944;-79
2022/10/15 09:58:24;;;;;;;7.40;1.87;;;16.10;99.90;;;;;;494317;241;28772;-80
2022/10/15 10:00:25;;;;;;;1.73;1.60;;;16.10;99.90;;;;;;494490;240;28703;-80
2022/10/15 10:02:26;;;;;;;4.13;1.37;;;16.10;99.90;;;;;;494364;241;28683;-80
2022/10/15 10:04:27;;;;;;;1.80;1.30;;;16.20;99.90;;;;;;494502;241;28750;-81
2022/10/15 10:06:29;;;;;;;4.00;1.90;;;16.30;99.90;;;;;;494420;241;28678;-79
2022/10/15 10:08:30;;;;;;;4.10;1.40;;;16.30;99.90;;;;;;494454;241;28799;-80
2022/10/15 10:10:31;;;;;;;2.80;1.20;;;16.30;99.90;;;;;;494463;241;28707;-80
2022/10/15 10:12:32;;;;;;;1.33;1.30;;;16.10;99.90;;;;;;494445;241;28664;-80
2022/10/15 10:14:34;;;;;;;1.30;1.20;;;16.00;99.90;;;;;;494264;241;28798;-80
2022/10/15 10:16:36;;;;;;;1.40;1.30;;;15.90;99.90;;;;;;494232;241;29520;-79
2022/10/15 10:18:36;;;;;;;3.23;1.60;;;15.80;99.90;;;;;;494309;241;28677;-80
2022/10/15 10:20:37;;;;;;;2.43;1.50;;;15.70;99.90;;;;;;494439;241;29316;-80
2022/10/15 10:22:39;;;;;;;1.73;1.30;;;15.80;99.90;;;;;;494298;241;28688;-80
2022/10/15 10:24:40;;;;;;;2.30;1.40;;;16.00;99.90;;;;;;494315;241;28670;-80
2022/10/15 10:26:41;;;;;;;2.70;1.30;;;16.10;99.90;;;;;;494230;241;28880;-80
2022/10/15 10:28:42;;;;;;;1.40;1.30;;;16.10;99.90;;;;;;494218;240;28781;-80
2022/10/15 10:30:44;;;;;;;1.27;1.27;;;16.10;99.90;;;;;;494337;237;28692;-80
2022/10/15 10:32:45;;;;;;;1.53;1.27;;;16.10;99.90;;;;;;494482;238;28658;-80
2022/10/15 10:34:46;;;;;;;2.53;1.87;;;16.30;99.90;;;;;;494521;241;28685;-79